Pagina principale
METAR-TAF:

METAR-TAF

Aeroporti :

Aeroporto di Pescara

Pescara, Italia

latitudine: 42-26N, longitudine: 014-12E, altezza: 10 m

Osservazione

Il bollettino è stato emesso 20 minuti fa, alle 20:50 UTC
Vento 4 kt da ovest/sud-ovest, variando fra sud/sud-ovest e ovest
Temperature 7°C
Umidità 81%
Pressione 1013 hPa
Visibilità 10 km o più
Nubi sparse ad un'altezza di 9000 ft

METAR: LIBP 182050Z 24004KT 210V280 9999 SCT090 07/04 Q1013

Ora: 22:10 (21:10 UTC)

Previsione

Il bollettino è stato emesso 4 ore e 10 minuti fa, alle 17:00 UTC
Previsione valida dal 18 alle 18 UTC al 19 alle 18 UTC
Vento 5 kt da direzioni variabili
Visibilità 10 km o più
Nubi sparse ad un'altezza di 3000 ft
Temporaneamente
dal 19 alle 12 UTC al 19 alle 18 UTC
Visibilità: 4000 m
temporale, pioggia

TAF: LIBP 181700Z 1818/1918 VRB05KT 9999 SCT030 TEMPO 1912/1918 4000 TSRA

Osservazioni e previsioni meteorologiche di più di 4000 aeroporti (messaggi METAR e TAF).

Le stazioni disponibili sono rappresentate dai dischi gialli e rossi sulla carta.

Puntare il mouse per vedere il nome della stazione.

Clicca sopra per visualizzare le osservazioni e previsioni meteorologiche.

Per cambiare la mappa : fare clic sui pulsanti verdi con una croce nera per ingrandire, il pulsante verde con un trattino per diminuire, o sulla freccia verde per le mappe adiacenti.


METAR-TAF: